createdAt,value
2018-10-18T00:01:35.923Z,21.80
2018-10-18T00:04:02.214Z,20.77
2018-10-18T00:06:28.534Z,21.40
2018-10-18T00:08:54.851Z,22.03
2018-10-18T00:11:21.885Z,23.17
2018-10-18T00:13:48.178Z,21.43
2018-10-18T00:16:14.556Z,22.00
2018-10-18T00:18:40.877Z,20.20
2018-10-18T00:21:07.190Z,21.70
2018-10-18T00:23:33.496Z,24.60
2018-10-18T00:25:59.941Z,24.40
2018-10-18T00:28:26.219Z,23.50
2018-10-18T00:30:52.523Z,24.50
2018-10-18T00:33:18.842Z,24.00
2018-10-18T00:35:45.118Z,26.17
2018-10-18T00:38:11.452Z,26.30
2018-10-18T00:40:37.738Z,25.80
2018-10-18T00:43:04.022Z,24.03
2018-10-18T00:45:30.288Z,26.30
2018-10-18T00:47:56.730Z,25.50
2018-10-18T00:50:23.025Z,25.70
2018-10-18T00:52:49.406Z,25.13
2018-10-18T00:55:15.724Z,26.20
2018-10-18T00:57:42.008Z,26.13
2018-10-18T01:00:08.477Z,26.17
2018-10-18T01:02:34.693Z,24.87
2018-10-18T01:05:01.006Z,27.10
2018-10-18T01:07:28.022Z,25.10
2018-10-18T01:09:54.341Z,27.40
2018-10-18T01:12:20.847Z,27.17
2018-10-18T01:14:46.966Z,27.70
2018-10-18T01:17:13.281Z,27.37
2018-10-18T01:19:39.615Z,27.13
2018-10-18T01:22:05.971Z,28.17
2018-10-18T01:24:32.419Z,26.40
2018-10-18T01:26:58.992Z,29.00
2018-10-18T01:29:25.289Z,27.07
2018-10-18T01:31:51.576Z,26.60
2018-10-18T01:34:18.618Z,28.43
2018-10-18T01:36:45.681Z,26.60
2018-10-18T01:39:12.718Z,24.93
2018-10-18T01:41:39.046Z,24.43
2018-10-18T01:44:05.337Z,24.80
2018-10-18T01:46:31.621Z,23.97
2018-10-18T01:48:57.930Z,24.07
2018-10-18T01:51:24.288Z,24.00
2018-10-18T01:53:50.590Z,26.33
2018-10-18T01:56:16.963Z,24.27
2018-10-18T01:58:43.193Z,25.27
2018-10-18T02:01:09.472Z,24.90
2018-10-18T02:03:35.798Z,25.23
2018-10-18T02:06:02.155Z,25.70
2018-10-18T02:08:28.432Z,25.60
2018-10-18T02:10:54.763Z,26.40
2018-10-18T02:13:21.095Z,26.90
2018-10-18T02:15:47.388Z,27.60
2018-10-18T02:18:13.813Z,25.93
2018-10-18T02:20:40.026Z,26.17
2018-10-18T02:23:06.313Z,24.70
2018-10-18T02:25:32.710Z,28.37
2018-10-18T02:27:59.837Z,27.37
2018-10-18T02:30:26.118Z,27.83
2018-10-18T02:32:52.417Z,28.20
2018-10-18T02:35:18.781Z,25.80
2018-10-18T02:37:45.837Z,26.37
2018-10-18T02:40:12.193Z,27.60
2018-10-18T02:42:38.514Z,26.03
2018-10-18T02:45:04.851Z,27.40
2018-10-18T02:47:31.136Z,26.40
2018-10-18T02:49:57.470Z,26.97
2018-10-18T02:52:24.493Z,27.93
2018-10-18T02:54:50.852Z,26.80
2018-10-18T02:57:17.185Z,29.40
2018-10-18T02:59:44.220Z,28.20
2018-10-18T03:02:10.522Z,27.50
2018-10-18T03:04:36.904Z,29.37
2018-10-18T03:07:03.935Z,26.80
2018-10-18T03:09:30.256Z,27.73
2018-10-18T03:11:56.707Z,27.13
2018-10-18T03:14:22.984Z,28.67
2018-10-18T03:16:49.287Z,27.20
2018-10-18T03:19:15.609Z,25.40
2018-10-18T03:21:41.904Z,26.60
2018-10-18T03:24:08.223Z,25.23
2018-10-18T03:26:35.221Z,24.30
2018-10-18T03:29:02.526Z,25.20
2018-10-18T03:31:29.185Z,25.43
2018-10-18T03:33:55.475Z,24.90
2018-10-18T03:36:21.794Z,26.70
2018-10-18T03:38:48.159Z,24.67
2018-10-18T03:41:14.535Z,26.20
2018-10-18T03:43:40.824Z,28.70
2018-10-18T03:46:07.396Z,27.80
2018-10-18T03:48:33.727Z,27.33
2018-10-18T03:51:00.030Z,27.87
2018-10-18T03:53:26.322Z,28.53
2018-10-18T03:55:52.641Z,28.47
2018-10-18T03:58:19.663Z,29.80
2018-10-18T04:00:46.030Z,29.80
2018-10-18T04:03:12.330Z,29.23
2018-10-18T04:05:39.402Z,29.53
2018-10-18T04:08:05.758Z,32.40
2018-10-18T04:10:32.064Z,31.00
2018-10-18T04:12:58.440Z,30.83
2018-10-18T04:15:24.692Z,30.00
2018-10-18T04:17:51.051Z,28.97
2018-10-18T04:20:18.215Z,32.10
2018-10-18T04:22:45.375Z,29.17
2018-10-18T04:25:12.393Z,32.60
2018-10-18T04:27:39.594Z,32.40
2018-10-18T04:30:06.267Z,33.80
2018-10-18T04:32:33.358Z,34.07
2018-10-18T04:34:59.921Z,33.90
2018-10-18T04:37:26.226Z,33.47
2018-10-18T04:39:53.264Z,33.97
2018-10-18T04:42:19.818Z,32.83
2018-10-18T04:44:46.189Z,31.53
2018-10-18T04:47:13.875Z,33.40
2018-10-18T04:49:40.215Z,30.27
2018-10-18T04:52:06.494Z,32.23
2018-10-18T04:54:32.815Z,33.43
2018-10-18T04:57:00.069Z,33.27
2018-10-18T04:59:26.236Z,31.70
2018-10-18T05:01:52.707Z,33.10
2018-10-18T05:04:19.350Z,30.07
2018-10-18T05:06:45.620Z,33.60
2018-10-18T05:09:11.947Z,29.67
2018-10-18T05:11:38.242Z,30.17
2018-10-18T05:14:04.574Z,32.03
2018-10-18T05:16:30.870Z,29.70
2018-10-18T05:19:08.011Z,32.07
2018-10-18T05:21:34.289Z,29.60
2018-10-18T05:24:00.621Z,30.87
2018-10-18T05:26:27.121Z,29.70
2018-10-18T05:28:53.452Z,31.63
2018-10-18T05:31:19.890Z,32.07
2018-10-18T05:33:46.171Z,31.30
2018-10-18T05:36:12.482Z,31.93
2018-10-18T05:38:38.755Z,32.67
2018-10-18T05:41:05.175Z,32.17
2018-10-18T05:43:31.515Z,30.70
2018-10-18T05:45:57.837Z,31.80
2018-10-18T05:48:24.132Z,32.20
2018-10-18T05:50:50.430Z,29.57
2018-10-18T05:53:17.623Z,28.10
2018-10-18T05:55:43.876Z,32.77
2018-10-18T05:58:10.251Z,30.53
2018-10-18T06:00:36.720Z,33.50
2018-10-18T06:03:03.051Z,32.63
2018-10-18T06:05:29.347Z,32.87
2018-10-18T06:07:55.677Z,31.90
2018-10-18T06:23:59.577Z,32.72
2018-10-18T06:26:26.610Z,30.73
2018-10-18T06:28:52.950Z,29.13
2018-10-18T06:31:19.279Z,31.47
2018-10-18T06:33:45.605Z,29.80
2018-10-18T06:36:11.898Z,31.73
2018-10-18T06:38:38.176Z,29.70
2018-10-18T06:41:04.531Z,31.40
2018-10-18T06:43:31.630Z,32.97
2018-10-18T06:45:57.914Z,31.33
2018-10-18T06:48:24.205Z,30.80
2018-10-18T06:50:50.532Z,32.87
2018-10-18T06:53:16.823Z,32.13
2018-10-18T06:55:43.153Z,31.50
2018-10-18T06:58:09.430Z,31.10
2018-10-18T07:00:35.737Z,30.83
2018-10-18T07:03:02.057Z,31.20
2018-10-18T07:05:28.345Z,32.80
2018-10-18T07:07:54.697Z,30.83
2018-10-18T07:10:21.111Z,29.77
2018-10-18T07:12:48.131Z,29.97
2018-10-18T07:15:15.241Z,31.63
2018-10-18T07:17:43.006Z,31.80
2018-10-18T07:20:09.443Z,29.83
2018-10-18T07:22:35.747Z,31.47
2018-10-18T07:25:04.552Z,32.13
2018-10-18T07:27:30.946Z,29.53
2018-10-18T07:29:57.300Z,32.00
2018-10-18T07:32:23.589Z,30.13
2018-10-18T07:34:49.896Z,33.20
2018-10-18T07:37:16.189Z,33.87
2018-10-18T07:39:43.197Z,34.90
2018-10-18T07:42:09.582Z,33.93
2018-10-18T07:44:35.800Z,35.43
2018-10-18T07:47:02.206Z,36.50
2018-10-18T07:49:28.457Z,34.60
2018-10-18T07:51:54.757Z,35.30
2018-10-18T07:54:21.058Z,35.70
2018-10-18T07:56:47.329Z,38.03
2018-10-18T07:59:14.615Z,38.57
2018-10-18T08:01:41.639Z,37.03
2018-10-18T08:04:07.928Z,38.17
2018-10-18T08:06:34.205Z,38.63
2018-10-18T08:09:00.474Z,38.47
2018-10-18T08:11:26.771Z,39.67
2018-10-18T08:13:53.058Z,39.40
2018-10-18T08:16:19.531Z,38.10
2018-10-18T08:18:45.861Z,39.67
2018-10-18T08:21:12.400Z,39.13
2018-10-18T08:23:38.940Z,39.03
2018-10-18T08:26:05.906Z,40.40
2018-10-18T08:28:32.908Z,41.43
2018-10-18T08:30:59.223Z,40.80
2018-10-18T08:33:29.407Z,40.77
2018-10-18T08:35:57.469Z,40.17
2018-10-18T08:38:25.595Z,40.47
2018-10-18T08:40:52.088Z,42.67
2018-10-18T08:43:19.030Z,41.30
2018-10-18T08:45:45.481Z,42.50
2018-10-18T08:48:13.166Z,43.20
2018-10-18T08:50:40.578Z,44.43
2018-10-18T08:53:07.726Z,45.53
2018-10-18T08:55:34.923Z,44.20
2018-10-18T08:58:01.955Z,42.93
2018-10-18T09:00:29.094Z,44.00
2018-10-18T09:02:55.496Z,45.30
2018-10-18T09:05:22.814Z,45.37
2018-10-18T09:07:49.137Z,44.53
2018-10-18T09:10:16.038Z,44.67
2018-10-18T09:12:42.793Z,46.17
2018-10-18T09:15:10.709Z,44.13
2018-10-18T09:17:37.101Z,45.90
2018-10-18T09:20:03.409Z,46.90
2018-10-18T09:22:29.750Z,44.90
2018-10-18T09:24:56.116Z,48.77
2018-10-18T09:27:22.386Z,46.23
2018-10-18T09:29:48.727Z,45.50
2018-10-18T09:32:15.038Z,43.67
2018-10-18T09:34:42.304Z,44.97
2018-10-18T09:37:09.444Z,46.40
2018-10-18T09:39:35.684Z,46.40
2018-10-18T09:42:02.219Z,47.77
2018-10-18T09:44:28.869Z,46.20
2018-10-18T09:46:55.189Z,46.30
2018-10-18T09:49:21.873Z,47.90
2018-10-18T09:51:48.163Z,46.37
2018-10-18T09:54:14.441Z,44.40
2018-10-18T09:56:40.813Z,45.43
2018-10-18T09:59:07.149Z,46.20
2018-10-18T10:01:40.414Z,44.80
2018-10-18T10:04:06.865Z,47.10
2018-10-18T10:06:33.342Z,41.43
2018-10-18T10:08:59.731Z,41.47
2018-10-18T10:11:26.315Z,43.60
2018-10-18T10:13:53.602Z,43.00
2018-10-18T10:16:20.882Z,47.03
2018-10-18T10:18:49.017Z,44.83
2018-10-18T10:21:17.562Z,46.17
2018-10-18T10:23:44.725Z,47.23
2018-10-18T10:26:12.465Z,45.20
2018-10-18T10:28:38.892Z,43.27
2018-10-18T10:31:05.443Z,41.70
2018-10-18T10:33:31.913Z,43.00
2018-10-18T10:35:58.454Z,40.73
2018-10-18T10:38:24.806Z,46.40
2018-10-18T10:40:51.215Z,41.40
2018-10-18T10:43:17.698Z,38.47
2018-10-18T10:45:44.177Z,41.33
2018-10-18T10:48:11.268Z,40.57
2018-10-18T10:50:37.707Z,35.37
2018-10-18T10:53:04.092Z,43.57
2018-10-18T10:55:30.518Z,40.80
2018-10-18T10:57:56.964Z,43.13
2018-10-18T11:00:23.399Z,42.03
2018-10-18T11:02:49.765Z,38.63
2018-10-18T11:05:16.141Z,37.53
2018-10-18T11:07:44.945Z,39.00
2018-10-18T11:10:11.559Z,38.60
2018-10-18T11:12:37.885Z,40.57
2018-10-18T11:15:05.082Z,40.63
2018-10-18T11:17:31.404Z,40.20
2018-10-18T11:19:57.886Z,39.07
2018-10-18T11:22:24.631Z,39.60
2018-10-18T11:24:52.143Z,40.20
2018-10-18T11:27:19.501Z,38.00
2018-10-18T11:29:45.790Z,34.47
2018-10-18T11:32:12.884Z,36.27
2018-10-18T11:34:39.440Z,36.87
2018-10-18T11:37:05.918Z,32.80
2018-10-18T11:39:33.063Z,36.70
2018-10-18T11:42:00.185Z,37.20
2018-10-18T11:44:26.585Z,38.20
2018-10-18T11:46:53.379Z,36.07
2018-10-18T11:49:20.209Z,35.70
2018-10-18T11:51:47.145Z,37.93
2018-10-18T11:54:13.815Z,38.57
2018-10-18T11:56:40.433Z,38.53
2018-10-18T11:59:06.840Z,42.53
2018-10-18T12:01:33.258Z,52.50
2018-10-18T12:03:59.547Z,44.93
2018-10-18T12:06:26.779Z,79.53
2018-10-18T12:08:53.057Z,64.47
2018-10-18T12:11:20.155Z,148.17
2018-10-18T12:13:47.607Z,57.87
2018-10-18T12:16:14.055Z,62.63
2018-10-18T12:18:40.378Z,41.37
2018-10-18T12:21:06.664Z,106.83
2018-10-18T12:23:33.139Z,51.43
2018-10-18T12:25:59.410Z,93.43
2018-10-18T12:28:26.330Z,48.87
2018-10-18T12:30:52.649Z,50.57
2018-10-18T12:33:19.367Z,45.60
2018-10-18T12:35:45.722Z,37.73
2018-10-18T12:38:13.422Z,37.90
2018-10-18T12:40:39.990Z,39.87
2018-10-18T12:43:07.406Z,39.70
2018-10-18T12:45:34.177Z,32.93
2018-10-18T12:48:01.130Z,36.17
2018-10-18T12:50:29.169Z,33.90
2018-10-18T12:52:57.453Z,34.23
2018-10-18T12:55:25.723Z,32.10
2018-10-18T12:57:53.809Z,34.50
2018-10-18T13:00:20.817Z,33.60
2018-10-18T13:02:48.072Z,33.93
2018-10-18T13:05:14.397Z,32.10
2018-10-18T13:07:41.221Z,32.30
2018-10-18T13:10:07.658Z,34.23
2018-10-18T13:12:34.180Z,34.57
2018-10-18T13:15:01.329Z,31.27
2018-10-18T13:17:27.836Z,34.00
2018-10-18T13:19:54.526Z,33.97
2018-10-18T13:22:20.863Z,31.27
2018-10-18T13:24:47.131Z,32.83
2018-10-18T13:27:14.355Z,32.53
2018-10-18T13:29:40.738Z,32.27
2018-10-18T13:32:07.920Z,31.17
2018-10-18T13:34:34.213Z,32.57
2018-10-18T13:37:01.287Z,34.73
2018-10-18T13:39:27.589Z,34.00
2018-10-18T13:41:53.939Z,32.80
2018-10-18T13:44:20.249Z,37.03
2018-10-18T13:46:47.310Z,36.07
2018-10-18T13:49:14.504Z,35.90
2018-10-18T13:51:40.853Z,34.90
2018-10-18T13:54:07.251Z,36.17
2018-10-18T13:56:34.342Z,36.40
2018-10-18T13:59:01.628Z,33.53
2018-10-18T14:01:27.963Z,36.53
2018-10-18T14:03:55.106Z,32.50
2018-10-18T14:06:21.432Z,35.20
2018-10-18T14:08:47.811Z,33.47
2018-10-18T14:11:14.902Z,33.00
2018-10-18T14:13:42.937Z,35.10
2018-10-18T14:16:09.695Z,32.13
2018-10-18T14:18:36.620Z,32.43
2018-10-18T14:21:03.023Z,32.60
2018-10-18T14:23:36.010Z,31.50
2018-10-18T14:26:06.783Z,31.80
2018-10-18T14:31:12.860Z,31.70
2018-10-18T14:33:39.643Z,32.40
2018-10-18T14:36:06.830Z,30.10
2018-10-18T14:38:37.569Z,32.13
2018-10-18T14:41:04.830Z,31.53
2018-10-18T14:43:36.866Z,30.70
2018-10-18T14:46:06.331Z,30.73
2018-10-18T14:48:33.528Z,29.27
2018-10-18T14:51:03.937Z,29.80
2018-10-18T14:53:30.304Z,29.53
2018-10-18T14:55:57.427Z,32.73
2018-10-18T14:58:25.190Z,30.80
2018-10-18T15:00:52.264Z,30.23
2018-10-18T15:03:19.262Z,29.33
2018-10-18T15:05:45.967Z,28.63
2018-10-18T15:08:14.004Z,30.77
2018-10-18T15:10:41.875Z,30.10
2018-10-18T15:13:10.728Z,28.50
2018-10-18T15:15:37.451Z,30.47
2018-10-18T15:18:10.767Z,28.50
2018-10-18T15:20:37.916Z,31.67
2018-10-18T15:23:06.569Z,29.97
2018-10-18T15:25:35.308Z,29.20
2018-10-18T15:28:05.132Z,29.70
2018-10-18T15:30:31.976Z,29.90
2018-10-18T15:32:58.362Z,30.20
2018-10-18T15:35:27.590Z,27.53
2018-10-18T15:37:57.307Z,33.87
2018-10-18T15:40:25.863Z,30.77
2018-10-18T15:43:03.720Z,29.57
2018-10-18T15:45:30.285Z,29.73
2018-10-18T15:47:56.720Z,31.30
2018-10-18T15:50:29.685Z,28.40
2018-10-18T15:53:00.305Z,26.90
2018-10-18T15:55:29.311Z,28.30
2018-10-18T15:57:56.090Z,29.00
2018-10-18T16:00:28.649Z,27.50
2018-10-18T16:02:56.647Z,26.90
2018-10-18T16:05:25.630Z,26.00
2018-10-18T16:07:53.518Z,25.10
2018-10-18T16:10:20.288Z,34.10
2018-10-18T16:12:58.147Z,25.83
2018-10-18T16:15:28.948Z,27.70
2018-10-18T16:17:55.714Z,27.97
2018-10-18T16:20:21.948Z,26.27
2018-10-18T16:22:48.362Z,27.80
2018-10-18T16:25:15.444Z,26.70
2018-10-18T16:27:44.536Z,26.77
2018-10-18T16:30:13.705Z,27.50
2018-10-18T16:32:44.956Z,27.83
2018-10-18T16:35:21.123Z,27.03
2018-10-18T16:37:53.257Z,25.90
2018-10-18T16:40:22.252Z,29.03
2018-10-18T16:45:29.266Z,27.33
2018-10-18T16:48:11.739Z,31.13
2018-10-18T16:53:20.440Z,26.33
2018-10-18T16:55:50.961Z,28.50
2018-10-18T16:58:18.932Z,27.03
2018-10-18T17:00:47.578Z,27.67
2018-10-18T17:03:17.796Z,28.53
2018-10-18T17:05:47.793Z,29.00
2018-10-18T17:08:16.309Z,29.17
2018-10-18T17:10:43.624Z,26.60
2018-10-18T17:13:11.442Z,28.50
2018-10-18T17:15:39.386Z,27.00
2018-10-18T17:18:08.020Z,29.03
2018-10-18T17:20:36.458Z,30.43
2018-10-18T17:23:03.319Z,29.30
2018-10-18T17:25:33.506Z,27.60
2018-10-18T17:28:03.395Z,29.07
2018-10-18T17:30:35.282Z,26.23
2018-10-18T17:33:05.365Z,29.10
2018-10-18T17:35:41.689Z,30.03
2018-10-18T17:38:14.839Z,31.20
2018-10-18T17:40:43.868Z,31.17
2018-10-18T17:43:13.690Z,28.07
2018-10-18T17:45:42.150Z,28.07
2018-10-18T17:48:15.532Z,28.20
2018-10-18T17:50:46.113Z,29.80
2018-10-18T17:53:13.770Z,30.30
2018-10-18T17:58:27.786Z,28.80
2018-10-18T18:01:01.277Z,27.03
2018-10-18T18:03:34.291Z,28.93
2018-10-18T18:08:38.723Z,33.00
2018-10-18T18:11:08.366Z,30.20
2018-10-18T18:13:37.137Z,27.37
2018-10-18T18:18:43.230Z,28.43
2018-10-18T18:21:13.177Z,28.53
2018-10-18T18:26:32.333Z,29.87
2018-10-18T18:28:54.709Z,27.67
2018-10-18T18:31:31.261Z,28.50
2018-10-18T18:33:58.607Z,31.13
2018-10-18T18:36:24.982Z,28.33
2018-10-18T18:38:51.411Z,29.17
2018-10-18T18:41:19.572Z,30.30
2018-10-18T18:43:48.764Z,28.73
2018-10-18T18:46:15.123Z,30.17
2018-10-18T18:48:45.277Z,31.27
2018-10-18T18:51:11.874Z,28.80
2018-10-18T18:53:40.618Z,32.10
2018-10-18T18:56:08.668Z,28.83
2018-10-18T18:58:36.197Z,31.20
2018-10-18T19:01:06.148Z,29.77
2018-10-18T19:03:37.285Z,29.27
2018-10-18T19:06:08.940Z,29.63
2018-10-18T19:08:38.645Z,30.07
2018-10-18T19:11:05.066Z,29.87
2018-10-18T19:13:31.605Z,29.37
2018-10-18T19:15:58.849Z,30.53
2018-10-18T19:18:26.686Z,29.80
2018-10-18T19:20:52.990Z,31.50
2018-10-18T19:23:22.710Z,27.40
2018-10-18T19:25:54.451Z,29.80
2018-10-18T19:28:43.841Z,27.90
2018-10-18T19:31:13.848Z,30.63
2018-10-18T19:33:40.869Z,29.43
2018-10-18T19:36:09.635Z,29.60
2018-10-18T19:38:42.995Z,31.33
2018-10-18T19:41:18.952Z,30.93
2018-10-18T19:43:56.075Z,30.90
2018-10-18T19:46:25.129Z,30.33
2018-10-18T19:48:54.334Z,33.10
2018-10-18T19:51:20.908Z,33.87
2018-10-18T19:53:48.371Z,32.13
2018-10-18T19:56:14.869Z,34.00
2018-10-18T19:58:41.196Z,31.57
2018-10-18T20:01:07.543Z,35.63
2018-10-18T20:03:33.848Z,35.07
2018-10-18T20:06:00.674Z,32.93
2018-10-18T20:08:27.706Z,31.23
2018-10-18T20:10:54.066Z,29.10
2018-10-18T20:13:20.430Z,31.80
2018-10-18T20:15:46.766Z,29.90
2018-10-18T20:18:15.983Z,28.80
2018-10-18T20:20:43.017Z,30.60
2018-10-18T20:23:09.313Z,39.50
2018-10-18T20:25:35.645Z,38.87
2018-10-18T20:28:01.974Z,34.17
2018-10-18T20:30:28.291Z,29.30
2018-10-18T20:32:54.609Z,29.37
2018-10-18T20:35:20.982Z,28.17
2018-10-18T20:37:47.588Z,30.33
2018-10-18T20:40:13.901Z,31.00
2018-10-18T20:42:40.539Z,26.50
2018-10-18T20:45:06.880Z,27.73
2018-10-18T20:47:33.344Z,27.57
2018-10-18T20:49:59.530Z,26.47
2018-10-18T20:52:25.912Z,29.63
2018-10-18T20:54:52.202Z,30.63
2018-10-18T20:57:18.531Z,27.40
2018-10-18T20:59:45.285Z,30.13
2018-10-18T21:02:11.663Z,27.43
2018-10-18T21:04:37.966Z,26.60
2018-10-18T21:07:04.599Z,28.80
2018-10-18T21:09:30.932Z,25.73
2018-10-18T21:11:57.515Z,27.57
2018-10-18T21:14:24.226Z,25.50
2018-10-18T21:16:50.548Z,27.73
2018-10-18T21:19:17.091Z,27.90
2018-10-18T21:21:43.527Z,27.53
2018-10-18T21:24:09.837Z,25.63
2018-10-18T21:26:36.129Z,27.53
2018-10-18T21:29:02.489Z,26.20
2018-10-18T21:31:28.847Z,26.17
2018-10-18T21:33:55.122Z,24.33
2018-10-18T21:36:22.505Z,25.93
2018-10-18T21:38:48.860Z,25.33
2018-10-18T21:41:15.546Z,23.90
2018-10-18T21:43:42.642Z,24.67
2018-10-18T21:46:08.941Z,24.10
2018-10-18T21:48:36.216Z,24.27
2018-10-18T21:51:02.563Z,23.67
2018-10-18T21:53:29.333Z,25.63
2018-10-18T21:55:56.373Z,22.60
2018-10-18T21:58:22.663Z,23.17
2018-10-18T22:00:48.961Z,24.07
2018-10-18T22:03:15.322Z,23.47
2018-10-18T22:05:41.630Z,23.13
2018-10-18T22:08:08.001Z,23.50
2018-10-18T22:10:34.746Z,27.90
2018-10-18T22:13:01.101Z,24.57
2018-10-18T22:15:28.516Z,22.70
2018-10-18T22:17:54.857Z,23.17
2018-10-18T22:20:21.163Z,23.13
2018-10-18T22:22:47.779Z,21.80
2018-10-18T22:25:14.107Z,22.67
2018-10-18T22:27:40.594Z,21.00
2018-10-18T22:30:06.930Z,20.10
2018-10-18T22:32:33.356Z,19.80
2018-10-18T22:34:59.737Z,21.20
2018-10-18T22:37:26.100Z,18.50
2018-10-18T22:39:53.169Z,20.43
2018-10-18T22:42:20.015Z,19.43
2018-10-18T22:44:46.326Z,20.63
2018-10-18T22:47:12.655Z,19.97
2018-10-18T22:49:38.934Z,20.47
2018-10-18T22:52:05.226Z,18.97
2018-10-18T22:54:32.253Z,18.30
2018-10-18T22:56:58.521Z,17.47
2018-10-18T22:59:24.838Z,16.97
2018-10-18T23:01:51.879Z,17.27
2018-10-18T23:04:18.970Z,17.77
2018-10-18T23:06:45.232Z,18.13
2018-10-18T23:09:11.637Z,15.27
2018-10-18T23:11:37.848Z,16.63
2018-10-18T23:14:04.159Z,17.03
2018-10-18T23:16:30.493Z,16.90
2018-10-18T23:18:56.797Z,15.33
2018-10-18T23:21:23.128Z,14.40
2018-10-18T23:23:49.401Z,15.60
2018-10-18T23:26:15.768Z,15.30
2018-10-18T23:28:42.115Z,15.23
2018-10-18T23:31:08.398Z,15.13
2018-10-18T23:33:34.689Z,13.47
2018-10-18T23:36:01.013Z,13.27
2018-10-18T23:38:27.341Z,14.20
2018-10-18T23:40:53.690Z,14.10
2018-10-18T23:43:19.959Z,13.90
2018-10-18T23:45:46.294Z,13.90
2018-10-18T23:48:12.567Z,13.30
2018-10-18T23:50:38.910Z,12.90
2018-10-18T23:53:05.251Z,12.53
2018-10-18T23:55:31.510Z,13.53
2018-10-18T23:57:57.815Z,13.30
